Time;durP1;ratioP1;P1;durP2;ratioP2;P2;SDS_P1;SDS_P2;PMS_P1;PMS_P2;Temp;Humidity;BMP_temperature;BMP_pressure;BME280_temperature;BME280_humidity;BME280_pressure;Samples;Min_cycle;Max_cycle;Signal;HPM_P1;HPM_P2
2023/04/11 00:00:10;;;;;;;;;18.25;17.75;;;;;3.29;100.00;98587.69;4853787;28;101873;-72
2023/04/11 00:02:39;;;;;;;;;27.25;23.25;;;;;3.19;100.00;98587.78;4849795;28;101441;-72
2023/04/11 00:05:19;;;;;;;;;29.50;25.25;;;;;3.13;100.00;98580.38;4847521;28;101964;-71
2023/04/11 00:08:04;;;;;;;;;32.75;26.00;;;;;2.52;100.00;98473.56;4849291;28;107962;-72
2023/04/11 00:10:48;;;;;;;;;25.00;23.75;;;;;3.06;100.00;98560.63;4854404;28;101765;-72
2023/04/11 00:13:33;;;;;;;;;16.00;11.25;;;;;3.07;100.00;98556.94;4845402;28;102393;-71
2023/04/11 00:16:35;;;;;;;;;15.00;14.00;;;;;3.10;100.00;98564.66;4850027;28;101587;-71
2023/04/11 00:19:36;;;;;;;;;29.50;27.75;;;;;2.98;100.00;98561.38;4852668;28;107337;-72
2023/04/11 00:22:32;;;;;;;;;31.75;25.25;;;;;2.97;100.00;98550.88;4846478;28;101812;-72
2023/04/11 00:25:09;;;;;;;;;28.00;25.75;;;;;2.93;100.00;98544.97;4848747;28;101595;-72
2023/04/11 00:27:35;;;;;;;;;25.50;19.50;;;;;2.99;100.00;98547.03;4852263;28;101643;-72
2023/04/11 00:30:05;;;;;;;;;15.00;12.00;;;;;2.94;100.00;98535.97;4852499;28;103373;-72
2023/04/11 00:32:32;;;;;;;;;20.00;17.00;;;;;2.95;100.00;98539.47;4843424;28;101625;-72
2023/04/11 00:34:59;;;;;;;;;27.75;24.25;;;;;2.91;100.00;98538.13;4850548;28;101796;-72
2023/04/11 00:37:26;;;;;;;;;27.25;22.00;;;;;2.90;100.00;98528.41;4849844;28;102165;-72
2023/04/11 00:39:54;;;;;;;;;23.00;20.50;;;;;2.91;100.00;98528.28;4849749;28;103387;-72
2023/04/11 00:42:21;;;;;;;;;20.75;17.75;;;;;2.91;100.00;98517.59;4852726;28;101778;-72
2023/04/11 00:44:49;;;;;;;;;16.00;15.00;;;;;2.92;100.00;98511.28;4848173;28;101970;-72
2023/04/11 00:47:16;;;;;;;;;10.25;8.25;;;;;3.00;100.00;98521.16;4849637;28;101651;-72
2023/04/11 00:49:43;;;;;;;;;15.00;12.25;;;;;3.04;100.00;98522.53;4849413;28;103543;-72
2023/04/11 00:52:11;;;;;;;;;10.25;8.25;;;;;3.03;100.00;98512.84;4850577;28;102028;-72
2023/04/11 00:54:39;;;;;;;;;27.25;23.75;;;;;2.97;100.00;98526.81;4849509;28;103020;-72
2023/04/11 00:57:07;;;;;;;;;47.67;39.33;;;;;3.01;100.00;98520.19;4846150;28;101897;-72
2023/04/11 00:59:34;;;;;;;;;55.67;41.67;;;;;3.01;100.00;98513.00;4848771;28;103159;-72
2023/04/11 01:02:01;;;;;;;;;40.00;35.25;;;;;3.12;100.00;98510.06;4846754;28;101926;-72
2023/04/11 01:04:28;;;;;;;;;32.00;26.75;;;;;3.23;100.00;98517.00;4845219;28;101821;-72
2023/04/11 01:07:10;;;;;;;;;23.00;18.25;;;;;3.16;100.00;98489.22;4849228;28;105969;-72
2023/04/11 01:10:04;;;;;;;;;27.00;23.50;;;;;3.33;100.00;98507.03;4846787;28;106855;-72
2023/04/11 01:12:51;;;;;;;;;19.50;18.25;;;;;3.26;100.00;98505.97;4847899;28;102079;-72
2023/04/11 01:15:35;;;;;;;;;28.50;24.50;;;;;3.26;100.00;98508.66;4833507;28;102328;-71
2023/04/11 01:18:25;;;;;;;;;32.75;31.00;;;;;3.20;100.00;98495.09;4846007;28;102605;-72
2023/04/11 01:21:12;;;;;;;;;30.75;24.50;;;;;3.19;100.00;98493.41;4848920;28;106656;-72
2023/04/11 01:24:02;;;;;;;;;52.33;42.00;;;;;3.14;100.00;98488.56;4843953;28;102269;-73
2023/04/11 01:26:29;;;;;;;;;50.67;41.33;;;;;3.20;100.00;98490.56;4842322;28;101918;-72
2023/04/11 01:28:56;;;;;;;;;42.33;36.33;;;;;3.24;100.00;98486.63;4847714;28;103133;-71
2023/04/11 01:31:23;;;;;;;;;41.67;37.67;;;;;3.22;100.00;98483.25;4850603;28;108022;-72
2023/04/11 01:33:50;;;;;;;;;39.67;32.67;;;;;3.25;100.00;98479.41;4848196;28;101893;-72
2023/04/11 01:36:17;;;;;;;;;39.00;33.00;;;;;3.26;100.00;98473.91;4846227;28;101821;-71
2023/04/11 01:38:44;;;;;;;;;48.67;39.33;;;;;3.25;100.00;98476.75;4847892;28;101955;-71
2023/04/11 01:41:15;;;;;;;;;39.40;30.20;;;;;3.31;100.00;98471.63;4801042;28;1370205;-72
2023/04/11 01:43:43;;;;;;;;;49.00;41.00;;;;;3.30;100.00;98485.13;4849855;28;102055;-71
2023/04/11 01:46:10;;;;;;;;;32.67;31.00;;;;;3.32;100.00;98484.00;4847870;28;102506;-71
2023/04/11 01:48:37;;;;;;;;;39.67;37.00;;;;;3.28;100.00;98487.97;4853873;28;101740;-71
2023/04/11 01:51:06;;;;;;;;;29.25;28.25;;;;;3.32;100.00;98477.81;4847352;28;103366;-71
2023/04/11 01:53:33;;;;;;;;;37.25;34.00;;;;;3.33;100.00;98474.94;4849267;28;101717;-72
2023/04/11 01:56:00;;;;;;;;;41.67;37.67;;;;;3.23;100.00;98478.75;4848072;28;101573;-72
2023/04/11 01:58:27;;;;;;;;;50.33;40.00;;;;;3.22;100.00;98466.38;4847199;28;101588;-72
2023/04/11 02:00:54;;;;;;;;;29.75;26.25;;;;;3.32;100.00;98461.78;4853707;28;103509;-73
2023/04/11 02:03:21;;;;;;;;;24.75;22.50;;;;;3.39;100.00;98455.63;4852291;28;102420;-72
2023/04/11 02:05:48;;;;;;;;;23.25;19.25;;;;;3.42;100.00;98452.63;4843584;28;102035;-72
2023/04/11 02:08:15;;;;;;;;;22.00;17.50;;;;;3.42;100.00;98449.13;4842934;28;105874;-71
2023/04/11 02:10:42;;;;;;;;;19.25;18.25;;;;;3.38;100.00;98453.09;4851050;28;103409;-71
2023/04/11 02:13:09;;;;;;;;;37.50;30.00;;;;;3.24;100.00;98448.38;4849862;28;102236;-72
2023/04/11 02:15:36;;;;;;;;;32.50;28.75;;;;;3.26;100.00;98441.88;4848497;28;101627;-71
2023/04/11 02:18:05;;;;;;;;;33.50;29.75;;;;;3.27;100.00;98435.53;4845569;28;101581;-71
2023/04/11 02:20:32;;;;;;;;;37.75;33.50;;;;;3.26;100.00;98433.00;4848397;28;103586;-72
2023/04/11 02:23:03;;;;;;;;;20.00;15.00;;;;;3.22;100.00;98424.47;4848752;28;102042;-71
2023/04/11 02:25:30;;;;;;;;;27.25;24.00;;;;;3.26;100.00;98425.81;4852262;28;101605;-72
2023/04/11 02:27:57;;;;;;;;;31.75;24.75;;;;;3.23;100.00;98431.50;4847954;28;101588;-72
2023/04/11 02:30:24;;;;;;;;;35.75;30.25;;;;;3.12;100.00;98413.06;4849549;28;103351;-72
2023/04/11 02:32:51;;;;;;;;;33.00;29.00;;;;;3.07;100.00;98410.03;4850654;28;101716;-72
2023/04/11 02:35:18;;;;;;;;;42.00;36.67;;;;;3.12;100.00;98418.41;4849642;28;101543;-72
2023/04/11 02:37:45;;;;;;;;;34.00;30.00;;;;;3.02;100.00;98423.00;4846951;28;101584;-72
2023/04/11 02:40:12;;;;;;;;;33.75;29.25;;;;;3.05;100.00;98417.38;4844824;28;103351;-73
2023/04/11 02:42:41;;;;;;;;;39.00;34.00;;;;;2.96;100.00;98416.50;4847130;28;102711;-72
2023/04/11 02:45:10;;;;;;;;;30.67;29.00;;;;;2.95;100.00;98417.47;4843869;28;101807;-72
2023/04/11 02:47:38;;;;;;;;;37.50;32.25;;;;;2.86;100.00;98409.56;4846452;28;102321;-72
2023/04/11 02:50:06;;;;;;;;;41.50;34.00;;;;;2.82;100.00;98408.22;4846066;28;103718;-72
2023/04/11 02:52:33;;;;;;;;;37.33;31.00;;;;;2.83;100.00;98413.41;4846943;28;101985;-72
2023/04/11 02:55:00;;;;;;;;;39.33;34.00;;;;;2.75;100.00;98402.66;4849565;28;101620;-72
2023/04/11 02:57:27;;;;;;;;;41.50;28.75;;;;;2.68;100.00;98405.13;4846094;28;101596;-72
2023/04/11 02:59:54;;;;;;;;;39.33;32.00;;;;;2.67;100.00;98403.44;4853076;28;103323;-72
2023/04/11 03:02:22;;;;;;;;;32.25;27.00;;;;;2.74;100.00;98408.16;4845405;28;101673;-72
2023/04/11 03:04:50;;;;;;;;;28.00;22.75;;;;;2.82;100.00;98410.88;4848684;28;101473;-72
2023/04/11 03:07:17;;;;;;;;;25.00;23.00;;;;;2.89;100.00;98401.25;4849172;28;101679;-72
2023/04/11 03:09:43;;;;;;;;;20.25;16.00;;;;;2.88;100.00;98396.91;4845291;28;103305;-72
2023/04/11 03:12:10;;;;;;;;;29.25;25.25;;;;;2.77;100.00;98399.84;4851420;28;102046;-72
2023/04/11 03:14:37;;;;;;;;;35.25;28.50;;;;;2.72;100.00;98407.47;4851555;28;101833;-72
2023/04/11 03:17:04;;;;;;;;;36.75;31.00;;;;;2.63;100.00;98404.75;4850748;28;102019;-72
2023/04/11 03:19:31;;;;;;;;;35.00;27.00;;;;;2.64;100.00;98395.75;4849938;28;103496;-72
2023/04/11 03:22:00;;;;;;;;;37.50;28.50;;;;;2.49;100.00;98365.28;4850024;28;101704;-71
2023/04/11 03:24:27;;;;;;;;;29.25;25.00;;;;;2.51;100.00;98371.31;4852666;28;101484;-72
2023/04/11 03:26:54;;;;;;;;;23.50;21.25;;;;;2.58;100.00;98383.03;4850502;28;101783;-71
2023/04/11 03:29:21;;;;;;;;;16.75;15.25;;;;;2.62;100.00;98384.38;4851622;28;108032;-72
2023/04/11 03:31:49;;;;;;;;;18.25;17.50;;;;;2.64;100.00;98387.75;4849743;28;101559;-72
2023/04/11 03:34:16;;;;;;;;;18.25;13.25;;;;;2.61;100.00;98377.38;4851571;28;101710;-73
2023/04/11 03:36:43;;;;;;;;;28.75;27.75;;;;;2.45;100.00;98379.09;4854243;28;101752;-72
2023/04/11 03:39:10;;;;;;;;;26.50;19.50;;;;;2.44;100.00;98375.59;4850025;28;103208;-72
2023/04/11 03:41:37;;;;;;;;;39.00;26.67;;;;;2.32;100.00;98363.50;4849461;28;102266;-72
2023/04/11 03:44:04;;;;;;;;;35.67;30.00;;;;;2.28;100.00;98362.13;4848599;28;101745;-72
2023/04/11 03:46:31;;;;;;;;;35.00;31.75;;;;;2.23;100.00;98359.94;4853927;28;101641;-72
2023/04/11 03:48:58;;;;;;;;;34.00;23.25;;;;;2.22;100.00;98349.41;4847215;28;103354;-71
2023/04/11 03:51:25;;;;;;;;;30.00;26.50;;;;;2.22;100.00;98358.25;4847759;28;101750;-71
2023/04/11 03:53:53;;;;;;;;;29.00;24.00;;;;;2.17;100.00;98349.03;4851419;28;101879;-71
2023/04/11 03:56:20;;;;;;;;;27.00;26.00;;;;;2.11;100.00;98352.31;4852237;28;102835;-73
2023/04/11 03:58:47;;;;;;;;;31.67;27.67;;;;;2.13;100.00;98353.84;4845651;28;103625;-72
2023/04/11 04:01:14;;;;;;;;;23.25;19.75;;;;;2.11;100.00;98353.16;4851797;28;101673;-72
2023/04/11 04:03:41;;;;;;;;;23.50;21.00;;;;;2.10;100.00;98353.31;4852294;28;101534;-72
2023/04/11 04:06:08;;;;;;;;;32.33;26.00;;;;;2.09;100.00;98348.97;4851942;28;101665;-72
2023/04/11 04:08:35;;;;;;;;;33.00;29.67;;;;;2.07;100.00;98342.97;4853723;28;103652;-71
2023/04/11 04:11:02;;;;;;;;;33.00;29.67;;;;;1.64;100.00;98277.09;4853218;28;102112;-71
2023/04/11 04:13:29;;;;;;;;;40.67;35.00;;;;;1.97;100.00;98334.22;4843816;28;102124;-71
2023/04/11 04:15:57;;;;;;;;;30.00;26.67;;;;;2.04;100.00;98343.25;4852687;28;102043;-71
2023/04/11 04:18:24;;;;;;;;;23.25;20.25;;;;;2.08;100.00;98342.78;4853103;28;103465;-72
2023/04/11 04:20:51;;;;;;;;;18.00;16.50;;;;;2.11;100.00;98337.16;4853169;28;101689;-71
2023/04/11 04:23:18;;;;;;;;;19.00;15.50;;;;;2.14;100.00;98328.84;4855098;28;101489;-71
2023/04/11 04:25:50;;;;;;;;;25.67;20.33;;;;;2.02;100.00;98337.25;4854792;28;101672;-72
2023/04/11 04:28:21;;;;;;;;;32.75;27.75;;;;;2.02;100.00;98323.91;4851092;28;103368;-72
2023/04/11 04:30:49;;;;;;;;;34.67;28.33;;;;;1.99;100.00;98321.53;4851588;28;102013;-72
2023/04/11 04:33:17;;;;;;;;;20.00;13.33;;;;;1.99;100.00;98313.53;4846938;28;101725;-71
2023/04/11 04:35:44;;;;;;;;;36.33;30.33;;;;;1.86;100.00;98297.94;4849638;28;101929;-71
2023/04/11 04:38:16;;;;;;;;;50.00;39.33;;;;;1.93;100.00;98316.84;4850754;28;103418;-72
2023/04/11 04:40:43;;;;;;;;;42.67;37.33;;;;;2.03;100.00;98306.91;4849013;28;102151;-71
2023/04/11 04:43:17;;;;;;;;;62.67;44.33;;;;;2.08;100.00;98304.63;4852043;28;102164;-71
2023/04/11 04:45:44;;;;;;;;;48.67;39.00;;;;;2.01;100.00;98287.56;4850207;28;101637;-72
2023/04/11 04:48:16;;;;;;;;;39.67;26.33;;;;;2.10;100.00;98270.66;4850265;28;103496;-71
2023/04/11 04:50:44;;;;;;;;;46.67;36.00;;;;;2.21;100.00;98294.38;4849317;28;102302;-71
2023/04/11 04:53:11;;;;;;;;;27.00;24.00;;;;;2.32;100.00;98298.63;4850362;28;103740;-71
2023/04/11 04:55:38;;;;;;;;;32.00;26.00;;;;;2.43;100.00;98293.03;4850213;28;102600;-71
2023/04/11 04:58:05;;;;;;;;;34.67;29.33;;;;;2.29;100.00;98270.44;4849285;28;103345;-71
2023/04/11 05:00:32;;;;;;;;;30.00;26.67;;;;;2.44;100.00;98284.88;4849317;28;102554;-71
2023/04/11 05:02:59;;;;;;;;;33.25;25.50;;;;;2.56;100.00;98275.63;4848206;28;101773;-71
2023/04/11 05:05:26;;;;;;;;;46.00;39.00;;;;;2.66;100.00;98281.66;4846733;28;102160;-71
2023/04/11 05:07:53;;;;;;;;;45.33;38.33;;;;;2.79;100.00;98272.38;4847481;28;107890;-71
2023/04/11 05:10:20;;;;;;;;;43.00;38.00;;;;;2.85;100.00;98272.56;4846675;28;101695;-71
2023/04/11 05:12:47;;;;;;;;;37.00;28.33;;;;;3.16;100.00;98275.50;4850529;28;101696;-71
2023/04/11 05:15:14;;;;;;;;;28.25;21.25;;;;;3.42;100.00;98273.56;4845520;28;101532;-71
2023/04/11 05:17:41;;;;;;;;;33.50;26.25;;;;;3.55;100.00;98265.94;4844749;28;103385;-71
2023/04/11 05:20:09;;;;;;;;;29.00;23.75;;;;;3.74;100.00;98270.09;4860387;28;101777;-71
2023/04/11 05:22:36;;;;;;;;;19.25;19.25;;;;;3.95;100.00;98258.94;4855424;28;101971;-71
2023/04/11 05:25:04;;;;;;;;;29.75;21.25;;;;;4.11;100.00;98250.03;4849209;28;101895;-71
2023/04/11 05:27:31;;;;;;;;;17.50;13.50;;;;;4.34;100.00;98246.50;4847193;28;107394;-71
2023/04/11 05:29:59;;;;;;;;;21.75;17.25;;;;;4.42;100.00;98246.47;4851983;28;101991;-72
2023/04/11 05:32:27;;;;;;;;;32.25;26.25;;;;;4.54;100.00;98240.78;4850786;28;101883;-72
2023/04/11 05:34:55;;;;;;;;;31.75;27.00;;;;;4.74;100.00;98242.03;4855323;28;102030;-72
2023/04/11 05:37:25;;;;;;;;;30.50;25.50;;;;;5.07;100.00;98234.69;4844356;28;107864;-72
2023/04/11 05:39:52;;;;;;;;;32.00;27.00;;;;;5.70;100.00;98221.03;4849367;28;101994;-73
2023/04/11 05:42:19;;;;;;;;;30.75;26.75;;;;;6.20;100.00;98234.72;4847945;28;101631;-73
2023/04/11 05:44:45;;;;;;;;;55.25;38.75;;;;;6.36;100.00;98224.84;4853143;28;101811;-73
2023/04/11 05:47:12;;;;;;;;;37.25;34.50;;;;;6.93;100.00;98217.81;4845367;28;103519;-72
2023/04/11 05:49:39;;;;;;;;;32.50;30.00;;;;;7.40;100.00;98214.63;4847867;28;101792;-71
2023/04/11 05:52:06;;;;;;;;;34.00;26.00;;;;;7.59;100.00;98210.50;4848142;28;101874;-72
2023/04/11 05:54:35;;;;;;;;;37.75;31.00;;;;;8.04;100.00;98204.69;4853170;28;101669;-71
2023/04/11 05:57:03;;;;;;;;;25.75;21.75;;;;;8.72;97.35;98191.50;4848274;28;103371;-72
2023/04/11 05:59:30;;;;;;;;;21.25;18.00;;;;;9.52;95.98;98169.19;4846266;28;101839;-72
2023/04/11 06:01:58;;;;;;;;;22.75;22.75;;;;;9.69;92.09;98144.28;4851123;28;101875;-72
2023/04/11 06:04:25;;;;;;;;;23.75;22.50;;;;;10.06;88.16;98171.72;4855905;28;101871;-72
2023/04/11 06:06:52;;;;;;;;;27.75;24.00;;;;;10.51;91.26;98173.56;4848411;28;109870;-72
2023/04/11 06:09:19;;;;;;;;;26.25;25.25;;;;;10.77;84.26;98167.25;4846005;28;102027;-72
2023/04/11 06:11:46;;;;;;;;;23.25;20.25;;;;;10.77;84.61;98172.66;4848776;28;102007;-72
2023/04/11 06:14:13;;;;;;;;;22.75;20.00;;;;;11.23;84.69;98168.94;4851218;28;102720;-71
2023/04/11 06:16:41;;;;;;;;;21.00;19.75;;;;;11.58;81.03;98175.63;4848749;28;103910;-71
2023/04/11 06:19:08;;;;;;;;;19.00;16.00;;;;;12.09;80.23;98170.09;4841856;28;101683;-71
2023/04/11 06:21:35;;;;;;;;;29.75;23.75;;;;;12.10;81.20;98170.91;4847570;28;101817;-71
2023/04/11 06:24:07;;;;;;;;;24.25;21.00;;;;;12.03;77.47;98170.97;4850233;28;101954;-73
2023/04/11 06:26:34;;;;;;;;;23.75;22.00;;;;;12.43;76.31;98160.59;4866792;28;103271;-74
2023/04/11 06:29:05;;;;;;;;;30.50;26.00;;;;;11.45;79.90;98173.81;4850760;28;101798;-73
2023/04/11 06:31:32;;;;;;;;;30.75;28.75;;;;;12.14;84.07;98154.00;4848049;28;101640;-73
2023/04/11 06:34:00;;;;;;;;;26.00;24.75;;;;;12.75;80.70;98153.16;4849687;28;102541;-73
2023/04/11 06:36:29;;;;;;;;;28.00;22.75;;;;;12.84;78.43;98147.22;4847409;28;103503;-73
2023/04/11 06:38:56;;;;;;;;;26.75;21.50;;;;;12.77;78.89;98148.34;4850503;28;101504;-73
2023/04/11 06:41:23;;;;;;;;;19.50;17.25;;;;;12.71;81.85;98155.50;4842585;28;101924;-73
2023/04/11 06:43:50;;;;;;;;;17.25;15.50;;;;;12.75;80.91;98154.00;4848755;28;101618;-73
2023/04/11 06:46:17;;;;;;;;;12.50;12.50;;;;;12.67;81.20;98153.47;4848298;28;104191;-73
2023/04/11 06:48:44;;;;;;;;;7.00;7.00;;;;;12.56;80.34;98144.22;4850272;28;101720;-73
2023/04/11 06:51:11;;;;;;;;;14.50;13.50;;;;;12.37;81.77;98151.50;4842098;28;102368;-73
2023/04/11 06:53:38;;;;;;;;;14.75;13.50;;;;;12.25;79.53;98150.53;4848568;28;101869;-73
2023/04/11 06:56:05;;;;;;;;;13.50;13.50;;;;;12.04;80.61;98140.09;4849226;28;103363;-73
2023/04/11 06:58:32;;;;;;;;;17.25;16.25;;;;;12.03;81.36;98152.81;4850701;28;101989;-73
2023/04/11 07:01:00;;;;;;;;;18.50;15.50;;;;;12.03;82.80;98146.56;4841900;28;101529;-73
2023/04/11 07:03:29;;;;;;;;;17.50;16.50;;;;;11.89;82.57;98145.84;4848363;28;101557;-73
2023/04/11 07:05:57;;;;;;;;;15.00;15.00;;;;;11.82;83.53;98123.41;4849970;28;107924;-73
2023/04/11 07:08:24;;;;;;;;;15.00;14.00;;;;;11.98;82.69;98147.22;4856481;28;101538;-73
2023/04/11 07:10:51;;;;;;;;;24.25;21.75;;;;;12.07;83.84;98145.06;4850393;28;102170;-73
2023/04/11 07:13:20;;;;;;;;;26.50;26.00;;;;;11.96;83.87;98126.84;4852455;28;101614;-73
2023/04/11 07:15:49;;;;;;;;;14.25;7.50;;;;;12.14;84.70;98129.59;4852054;28;103096;-74
2023/04/11 07:18:16;;;;;;;;;17.00;16.50;;;;;12.38;86.29;98128.72;4852239;28;101460;-73
2023/04/11 07:20:43;;;;;;;;;16.00;11.75;;;;;12.48;84.40;98120.91;4850099;28;101632;-73
2023/04/11 07:23:10;;;;;;;;;15.50;12.50;;;;;12.21;82.42;98124.94;4851280;28;101608;-73
2023/04/11 07:25:38;;;;;;;;;9.25;9.25;;;;;11.91;80.28;98118.53;4852475;28;103374;-73
2023/04/11 07:28:08;;;;;;;;;11.00;9.50;;;;;11.82;80.27;98119.88;4852365;28;101743;-73
2023/04/11 07:30:35;;;;;;;;;12.50;9.75;;;;;11.62;79.79;98109.97;4851674;28;101782;-73
2023/04/11 07:33:02;;;;;;;;;7.75;6.50;;;;;11.71;80.99;98123.28;4847904;28;101843;-73
2023/04/11 07:35:32;;;;;;;;;10.75;10.00;;;;;11.63;81.22;98118.94;4849380;28;103495;-73
2023/04/11 07:38:00;;;;;;;;;8.00;7.75;;;;;11.83;79.54;98113.41;4853181;28;101629;-73
2023/04/11 07:40:27;;;;;;;;;8.25;8.25;;;;;11.88;80.33;98105.44;4855455;28;102422;-72
2023/04/11 07:42:54;;;;;;;;;7.50;7.00;;;;;12.04;79.16;98110.31;4850118;28;101624;-73
2023/04/11 07:45:21;;;;;;;;;15.00;12.00;;;;;12.06;80.47;98110.91;4845509;28;103387;-73
2023/04/11 07:47:48;;;;;;;;;15.25;12.75;;;;;12.12;78.45;98098.34;4852778;28;101934;-72
2023/04/11 07:50:15;;;;;;;;;11.00;8.00;;;;;12.14;77.59;98091.66;4851867;28;102737;-71
2023/04/11 07:52:42;;;;;;;;;8.00;7.25;;;;;12.05;77.78;98087.56;4849129;28;101620;-72
2023/04/11 07:55:09;;;;;;;;;10.25;9.25;;;;;12.07;77.86;98083.56;4845546;28;103407;-72
2023/04/11 07:57:36;;;;;;;;;9.25;8.00;;;;;12.22;78.84;98066.97;4850672;28;106996;-73
2023/04/11 08:00:04;;;;;;;;;8.00;6.50;;;;;12.21;77.24;98037.38;4852530;28;101982;-73
2023/04/11 08:02:31;;;;;;;;;7.50;7.50;;;;;12.48;76.85;98055.81;4849545;28;101979;-73
2023/04/11 08:04:59;;;;;;;;;7.25;6.00;;;;;12.62;76.90;98056.50;4846879;28;103096;-73
2023/04/11 08:07:26;;;;;;;;;7.75;6.75;;;;;12.85;77.95;98053.91;4852197;28;102348;-71
2023/04/11 08:09:53;;;;;;;;;7.50;7.50;;;;;12.93;75.64;98059.00;4854630;28;101905;-73
2023/04/11 08:12:20;;;;;;;;;8.25;7.00;;;;;13.00;73.72;98052.69;4852315;28;102749;-72
2023/04/11 08:14:47;;;;;;;;;9.50;8.00;;;;;12.86;72.99;98057.47;4844871;28;102829;-72
2023/04/11 08:17:14;;;;;;;;;8.25;7.75;;;;;12.56;73.54;98059.31;4849472;28;101590;-73
2023/04/11 08:19:56;;;;;;;;;9.25;8.00;;;;;12.64;76.32;98059.00;4849155;28;101876;-72
2023/04/11 08:22:23;;;;;;;;;9.25;7.75;;;;;12.75;75.06;98041.94;4856990;28;101948;-73
2023/04/11 08:24:51;;;;;;;;;8.00;8.00;;;;;12.77;75.80;98053.41;4846769;28;103378;-73
2023/04/11 08:27:17;;;;;;;;;12.75;10.00;;;;;12.77;73.44;98054.22;4848519;28;103431;-71
2023/04/11 08:29:44;;;;;;;;;10.75;7.00;;;;;12.73;73.39;98052.19;4850941;28;101869;-73
2023/04/11 08:32:11;;;;;;;;;5.50;5.50;;;;;12.83;74.06;98042.44;4853720;28;102127;-72
2023/04/11 08:34:38;;;;;;;;;5.00;5.00;;;;;13.00;74.02;98029.09;4846342;28;104188;-72
2023/04/11 08:37:05;;;;;;;;;7.00;6.00;;;;;13.11;74.30;98038.34;4846509;28;101785;-72
2023/04/11 08:39:33;;;;;;;;;5.00;5.00;;;;;13.27;73.31;98032.28;4846662;28;101773;-72
2023/04/11 08:42:00;;;;;;;;;5.00;5.00;;;;;13.38;71.79;98018.72;4851698;28;101963;-72
2023/04/11 08:44:28;;;;;;;;;7.00;6.00;;;;;13.59;72.32;98025.50;4854339;28;102833;-72
2023/04/11 08:46:55;;;;;;;;;6.00;6.00;;;;;13.64;70.97;98022.06;4845868;28;101706;-72
2023/04/11 08:49:21;;;;;;;;;4.00;4.00;;;;;13.95;68.27;98012.75;4850014;28;110450;-72
2023/04/11 08:51:52;;;;;;;;;5.00;4.50;;;;;14.13;68.28;98015.34;4851345;28;102389;-72
2023/04/11 08:54:19;;;;;;;;;2.50;2.50;;;;;14.20;66.37;98005.16;4850647;28;103389;-72
2023/04/11 08:56:46;;;;;;;;;3.00;3.00;;;;;14.38;66.73;98012.38;4840534;28;106274;-73
2023/04/11 08:59:13;;;;;;;;;2.50;2.50;;;;;14.60;66.17;98008.75;4846234;28;102722;-72
2023/04/11 09:01:40;;;;;;;;;3.00;3.00;;;;;14.63;63.84;98008.28;4852307;28;102240;-72
2023/04/11 09:04:10;;;;;;;;;2.67;2.67;;;;;14.83;64.81;98013.31;4860610;28;102381;-72
2023/04/11 09:06:38;;;;;;;;;5.00;5.00;;;;;14.94;62.64;98006.16;4860403;28;101998;-72
2023/04/11 09:09:07;;;;;;;;;2.00;2.00;;;;;15.06;63.60;97993.31;4854490;28;101678;-73
2023/04/11 09:11:54;;;;;;;;;2.33;2.33;;;;;15.17;59.90;98004.13;4856251;28;102536;-73
2023/04/11 09:14:25;;;;;;;;;1.00;1.00;;;;;15.18;58.94;97986.72;4857214;28;103369;-74
2023/04/11 09:16:55;;;;;;;;;4.67;4.67;;;;;15.18;58.83;97989.47;4855952;28;101971;-73
2023/04/11 09:19:28;;;;;;;;;3.00;3.00;;;;;15.23;62.14;97979.72;4853066;28;101697;-73
2023/04/11 09:22:00;;;;;;;;;4.00;4.00;;;;;15.13;60.41;97981.19;4850878;28;101996;-73
2023/04/11 09:24:30;;;;;;;;;3.00;3.00;;;;;15.33;63.85;97971.72;4854464;28;107974;-72
2023/04/11 09:27:26;;;;;;;;;5.00;5.00;;;;;15.26;62.33;97962.91;4854549;28;101784;-73
2023/04/11 09:29:53;;;;;;;;;5.00;5.00;;;;;14.85;57.80;97954.03;4860663;28;101687;-73
2023/04/11 09:32:33;;;;;;;;;9.33;6.67;;;;;14.75;59.45;97964.72;4853172;28;101893;-73
2023/04/11 09:35:11;;;;;;;;;7.00;6.00;;;;;14.63;59.79;97944.88;4851189;28;108027;-73
2023/04/11 09:37:49;;;;;;;;;6.00;5.00;;;;;14.90;61.16;97947.84;4857038;28;101853;-73
2023/04/11 09:40:18;;;;;;;;;4.67;4.67;;;;;15.02;61.71;97943.16;4853550;28;102051;-73
2023/04/11 09:42:47;;;;;;;;;4.67;3.67;;;;;15.12;59.58;97933.28;4853351;28;101841;-73
2023/04/11 09:45:14;;;;;;;;;3.00;3.00;;;;;15.09;58.36;97938.38;4855421;28;103134;-73
2023/04/11 09:47:41;;;;;;;;;4.00;3.00;;;;;15.13;54.53;97937.63;4859324;28;101716;-73
2023/04/11 09:50:11;;;;;;;;;3.00;3.00;;;;;15.29;56.82;97918.81;4857122;28;101899;-72
2023/04/11 09:52:42;;;;;;;;;4.00;4.00;;;;;15.55;57.74;97920.91;4864259;28;102413;-73
2023/04/11 09:55:20;;;;;;;;;2.00;2.00;;;;;15.65;56.29;97915.63;4860897;28;103355;-72
2023/04/11 09:57:48;;;;;;;;;1.00;1.00;;;;;15.62;55.13;97927.03;4851865;28;101805;-72
2023/04/11 10:00:21;;;;;;;;;3.33;3.00;;;;;15.82;54.26;97910.94;4864037;28;101984;-71
2023/04/11 10:02:53;;;;;;;;;1.00;1.00;;;;;16.03;52.25;97907.41;4849625;28;103308;-73
2023/04/11 10:05:25;;;;;;;;;1.33;1.33;;;;;16.16;51.78;97906.22;4847342;28;103319;-71
2023/04/11 10:08:01;;;;;;;;;2.00;1.00;;;;;16.23;51.74;97906.03;4852155;28;101564;-72
2023/04/11 10:10:28;;;;;;;;;2.00;2.00;;;;;16.30;51.96;97885.66;4842644;28;101931;-71
2023/04/11 10:12:55;;;;;;;;;4.00;3.00;;;;;16.33;52.77;97889.78;4848559;28;101719;-71
2023/04/11 10:15:22;;;;;;;;;3.67;3.00;;;;;16.07;51.46;97889.47;4848143;28;110276;-72
2023/04/11 10:18:10;;;;;;;;;3.67;3.67;;;;;16.22;53.37;97890.72;4845973;28;101859;-72
2023/04/11 10:20:45;;;;;;;;;7.33;6.00;;;;;16.15;49.70;97881.94;4844745;28;101939;-73
2023/04/11 10:23:13;;;;;;;;;6.33;5.67;;;;;15.98;49.77;97882.84;4847533;28;101979;-72
2023/04/11 10:25:49;;;;;;;;;3.00;3.00;;;;;16.00;50.08;97886.09;4846814;28;103354;-72
2023/04/11 10:28:39;;;;;;;;;4.00;4.00;;;;;16.18;48.52;97875.97;4846237;28;101821;-73
2023/04/11 10:31:11;;;;;;;;;3.33;3.33;;;;;16.07;50.43;97867.66;4848298;28;102843;-72
2023/04/11 10:34:12;;;;;;;;;1.00;1.00;;;;;16.23;49.02;97878.75;4848239;28;101845;-72
2023/04/11 10:37:07;;;;;;;;;2.33;2.00;;;;;16.35;51.10;97873.97;4849291;28;107680;-71
2023/04/11 10:39:52;;;;;;;;;2.00;2.00;;;;;16.43;49.48;97868.09;4847295;28;101492;-73
2023/04/11 10:42:56;;;;;;;;;2.00;2.00;;;;;16.45;47.80;97865.91;4847705;28;101632;-73
2023/04/11 10:45:26;;;;;;;;;4.00;3.33;;;;;16.47;52.68;97869.22;4812334;29;102161;-72
2023/04/11 10:47:56;;;;;;;;;4.00;4.00;;;;;16.55;52.94;97866.03;4845995;28;108041;-72
2023/04/11 10:50:25;;;;;;;;;3.33;2.33;;;;;16.36;51.64;97861.97;4854875;28;101976;-71
2023/04/11 10:52:57;;;;;;;;;3.33;3.33;;;;;16.33;51.17;97854.31;4849578;28;101887;-70
2023/04/11 10:55:26;;;;;;;;;3.00;2.33;;;;;16.55;51.71;97857.84;4851031;28;101976;-70
2023/04/11 10:58:12;;;;;;;;;3.33;3.33;;;;;16.35;52.29;97846.69;4851780;28;108025;-69
2023/04/11 11:00:46;;;;;;;;;6.00;6.00;;;;;16.28;53.10;97855.09;4852044;28;101980;-69
2023/04/11 11:03:21;;;;;;;;;5.00;5.00;;;;;16.51;54.11;97848.50;4849151;28;101838;-70
2023/04/11 11:06:02;;;;;;;;;3.67;3.00;;;;;16.72;49.36;97850.38;4854542;28;101630;-69
2023/04/11 11:08:32;;;;;;;;;4.00;4.00;;;;;16.82;50.92;97828.66;4847945;28;108226;-70
2023/04/11 11:11:08;;;;;;;;;7.67;7.67;;;;;16.80;50.97;97830.78;4848454;28;101553;-70
2023/04/11 11:13:38;;;;;;;;;6.00;6.00;;;;;17.01;49.44;97822.78;4848358;28;102098;-70
2023/04/11 11:16:13;;;;;;;;;4.33;4.00;;;;;16.84;49.62;97820.19;4853046;28;101716;-70
2023/04/11 11:18:43;;;;;;;;;7.67;6.33;;;;;16.86;48.83;97816.13;4852064;28;103566;-70
2023/04/11 11:21:12;;;;;;;;;7.00;6.00;;;;;16.78;47.73;97810.31;4850857;28;101931;-70
2023/04/11 11:23:54;;;;;;;;;9.00;9.00;;;;;16.49;49.77;97807.81;4847716;28;101919;-70
2023/04/11 11:26:21;;;;;;;;;6.67;6.67;;;;;16.58;49.94;97799.19;4849390;28;101977;-70